Time;durP1;ratioP1;P1;durP2;ratioP2;P2;SDS_P1;SDS_P2;PMS_P1;PMS_P2;Temp;Humidity;BMP_temperature;BMP_pressure;BME280_temperature;BME280_humidity;BME280_pressure;Samples;Min_cycle;Max_cycle;Signal;HPM_P1;HPM_P2
2022/03/20 00:01:04;;;;;;;;;;;;;;;7.18;nan;101980.03;4671375;29;19920;-89
2022/03/20 00:03:42;;;;;;;;;;;;;;;7.14;nan;101975.75;4677907;29;19916;-89
2022/03/20 00:06:22;;;;;;;;;;;;;;;7.10;nan;101976.88;4675131;29;19912;-89
2022/03/20 00:09:01;;;;;;;;;;;;;;;7.05;nan;101973.53;4666903;29;19916;-90
2022/03/20 00:11:39;;;;;;;;;;;;;;;7.02;nan;101960.09;4674245;29;19916;-89
2022/03/20 00:14:18;;;;;;;;;;;;;;;6.98;nan;101959.38;4669170;29;19916;-89
2022/03/20 00:16:57;;;;;;;;;;;;;;;6.96;nan;101957.69;4681035;29;19920;-90
2022/03/20 00:19:37;;;;;;;;;;;;;;;6.95;nan;101955.94;4660424;29;20307;-89
2022/03/20 00:22:16;;;;;;;;;;;;;;;6.93;nan;101947.03;4677576;29;19920;-89
2022/03/20 00:24:55;;;;;;;;;;;;;;;6.90;nan;101950.78;4677723;29;19987;-89
2022/03/20 00:27:34;;;;;;;;;;;;;;;6.88;nan;101945.44;4668024;29;20505;-89
2022/03/20 00:30:13;;;;;;;;;;;;;;;6.86;nan;101932.91;4681227;29;19916;-90
2022/03/20 00:32:53;;;;;;;;;;;;;;;6.83;nan;101938.50;4677932;29;19916;-89
2022/03/20 00:35:32;;;;;;;;;;;;;;;6.82;nan;101934.91;4684630;29;19916;-89
2022/03/20 00:38:11;;;;;;;;;;;;;;;6.79;nan;101928.75;4680080;29;19913;-89
2022/03/20 00:40:50;;;;;;;;;;;;;;;6.76;nan;101928.91;4668267;29;19920;-90
2022/03/20 00:43:29;;;;;;;;;;;;;;;6.72;nan;101922.75;4669795;29;19948;-89
2022/03/20 00:46:09;;;;;;;;;;;;;;;6.69;nan;101919.34;4680374;29;19917;-90
2022/03/20 00:48:48;;;;;;;;;;;;;;;6.66;nan;101924.94;4672622;29;20428;-89
2022/03/20 00:51:26;;;;;;;;;;;;;;;6.62;nan;101916.06;4673741;29;20359;-89
2022/03/20 00:54:05;;;;;;;;;;;;;;;6.60;nan;101904.44;4669434;29;19939;-90
2022/03/20 00:56:44;;;;;;;;;;;;;;;6.57;nan;101901.00;4674310;29;19924;-90
2022/03/20 00:59:23;;;;;;;;;;;;;;;6.53;nan;101895.72;4671836;29;19920;-89
2022/03/20 01:02:04;;;;;;;;;;;;;;;6.50;nan;101889.56;4670167;29;19917;-89
2022/03/20 01:04:43;;;;;;;;;;;;;;;6.45;nan;101878.13;4675530;29;19920;-89
2022/03/20 01:07:22;;;;;;;;;;;;;;;6.41;nan;101885.53;4671457;29;19912;-89
2022/03/20 01:10:02;;;;;;;;;;;;;;;6.37;nan;101878.50;4662841;29;19920;-89
2022/03/20 01:12:41;;;;;;;;;;;;;;;6.33;nan;101867.88;4678758;29;19917;-90
2022/03/20 01:15:20;;;;;;;;;;;;;;;6.29;nan;101864.44;4673450;29;19963;-89
2022/03/20 01:18:00;;;;;;;;;;;;;;;6.26;nan;101864.63;4667436;29;19916;-89
2022/03/20 01:20:38;;;;;;;;;;;;;;;6.22;nan;101851.31;4672984;29;20379;-88
2022/03/20 01:23:19;;;;;;;;;;;;;;;6.18;nan;101854.19;4673171;29;19963;-89
2022/03/20 01:25:58;;;;;;;;;;;;;;;6.15;nan;101851.63;4664541;29;20530;-90
2022/03/20 01:28:37;;;;;;;;;;;;;;;6.12;nan;101850.91;4672096;29;19959;-89
2022/03/20 01:31:16;;;;;;;;;;;;;;;6.08;nan;101838.44;4669561;29;19920;-90
2022/03/20 01:33:55;;;;;;;;;;;;;;;6.07;nan;101837.56;4672852;29;19921;-89
2022/03/20 01:36:34;;;;;;;;;;;;;;;6.04;nan;101835.03;4677825;29;19920;-89
2022/03/20 01:39:15;;;;;;;;;;;;;;;6.03;nan;101827.00;4677829;29;20469;-88
2022/03/20 01:41:57;;;;;;;;;;;;;;;5.99;nan;101823.56;4672674;29;19920;-88
2022/03/20 01:44:36;;;;;;;;;;;;;;;5.96;nan;101818.28;4673425;29;19917;-89
2022/03/20 01:47:15;;;;;;;;;;;;;;;5.94;nan;101816.59;4671680;29;19916;-90
2022/03/20 01:49:54;;;;;;;;;;;;;;;5.91;nan;101814.94;4672633;29;19920;-88
2022/03/20 01:52:33;;;;;;;;;;;;;;;5.89;nan;101806.00;4668699;29;20359;-89
2022/03/20 01:55:12;;;;;;;;;;;;;;;5.89;nan;101803.28;4665567;29;20335;-89
2022/03/20 01:57:51;;;;;;;;;;;;;;;5.88;nan;101793.38;4672638;29;19916;-89
2022/03/20 02:00:32;;;;;;;;;;;;;;;5.86;nan;101788.03;4675877;29;19916;-89
2022/03/20 02:03:11;;;;;;;;;;;;;;;5.86;nan;101782.59;4679103;29;19916;-90
2022/03/20 02:05:51;;;;;;;;;;;;;;;5.85;nan;101778.16;4672811;29;20363;-88
2022/03/20 02:08:33;;;;;;;;;;;;;;;5.85;nan;101772.72;4672988;29;19912;-89
2022/03/20 02:11:12;;;;;;;;;;;;;;;5.86;nan;101779.03;4671383;29;19916;-90
2022/03/20 02:13:51;;;;;;;;;;;;;;;5.85;nan;101761.00;4668325;29;20359;-89
2022/03/20 02:16:30;;;;;;;;;;;;;;;5.85;nan;101758.28;4658941;29;19928;-88
2022/03/20 02:19:13;;;;;;;;;;;;;;;5.86;nan;101749.22;4667135;29;20351;-89
2022/03/20 02:21:52;;;;;;;;;;;;;;;5.87;nan;101748.25;4678374;29;19916;-89
2022/03/20 02:24:41;;;;;;;;;;;;;;;5.86;nan;101747.38;4672546;29;19924;-87
2022/03/20 02:27:24;;;;;;;;;;;;;;;5.86;nan;101733.84;4675697;29;19916;-90
2022/03/20 02:30:11;;;;;;;;;;;;;;;5.86;nan;101727.53;4671911;29;19920;-89
2022/03/20 02:32:51;;;;;;;;;;;;;;;5.88;nan;101728.34;4672568;29;19920;-90
2022/03/20 02:35:31;;;;;;;;;;;;;;;5.87;nan;101715.75;4667490;29;19924;-89
2022/03/20 02:38:13;;;;;;;;;;;;;;;5.89;nan;101708.44;4685322;29;19916;-90
2022/03/20 02:40:54;;;;;;;;;;;;;;;5.89;nan;101705.75;4668303;29;19921;-88
2022/03/20 02:43:35;;;;;;;;;;;;;;;5.89;nan;101708.44;4662948;29;19916;-90
2022/03/20 02:46:14;;;;;;;;;;;;;;;5.90;nan;101701.19;4674932;29;19912;-90
2022/03/20 02:48:53;;;;;;;;;;;;;;;5.87;nan;101696.78;4672932;29;19920;-89
2022/03/20 02:51:32;;;;;;;;;;;;;;;5.88;nan;101700.38;4671267;29;19917;-89
2022/03/20 02:54:11;;;;;;;;;;;;;;;5.85;nan;101704.09;4670982;29;19920;-89
2022/03/20 02:56:50;;;;;;;;;;;;;;;5.84;nan;101697.84;4666016;29;19959;-89
2022/03/20 02:59:29;;;;;;;;;;;;;;;5.82;nan;101688.91;4672104;29;19912;-90
2022/03/20 03:02:09;;;;;;;;;;;;;;;5.81;nan;101691.72;4672290;29;19916;-90
2022/03/20 03:04:48;;;;;;;;;;;;;;;5.78;nan;101691.88;4671512;29;20371;-90
2022/03/20 03:07:27;;;;;;;;;;;;;;;5.74;nan;101677.59;4677529;29;20287;-90
2022/03/20 03:13:06;;;;;;;;;;;;;;;5.68;nan;101679.75;4677403;29;20363;-89
2022/03/20 03:15:45;;;;;;;;;;;;;;;5.65;nan;101688.03;4671175;29;20412;-90
2022/03/20 03:18:24;;;;;;;;;;;;;;;5.61;nan;101687.34;4671828;29;20351;-89
2022/03/20 03:21:03;;;;;;;;;;;;;;;5.58;nan;101681.19;4671466;29;19921;-89
2022/03/20 03:23:42;;;;;;;;;;;;;;;5.56;nan;101677.69;4672811;29;19912;-89
2022/03/20 03:26:21;;;;;;;;;;;;;;;5.52;nan;101674.25;4654492;29;19917;-89
2022/03/20 03:29:00;;;;;;;;;;;;;;;5.49;nan;101671.69;4661773;29;20359;-89
2022/03/20 03:31:39;;;;;;;;;;;;;;;5.44;nan;101674.63;4666449;29;19913;-89
2022/03/20 03:37:20;;;;;;;;;;;;;;;5.39;nan;101665.91;4678412;29;19921;-90
2022/03/20 03:40:00;;;;;;;;;;;;;;;5.34;nan;101646.31;4676959;29;19916;-89
2022/03/20 03:42:39;;;;;;;;;;;;;;;5.31;nan;101654.56;4666972;29;20031;-89
2022/03/20 03:45:18;;;;;;;;;;;;;;;5.29;nan;101655.59;4671755;29;19912;-88
2022/03/20 03:47:57;;;;;;;;;;;;;;;5.24;nan;101652.25;4664026;29;20315;-89
2022/03/20 03:50:37;;;;;;;;;;;;;;;5.20;nan;101646.09;4671176;29;19920;-89
2022/03/20 03:53:16;;;;;;;;;;;;;;;5.16;nan;101642.72;4677572;29;20268;-90
2022/03/20 03:55:54;;;;;;;;;;;;;;;5.13;nan;101636.56;4671052;29;20391;-89
2022/03/20 03:58:33;;;;;;;;;;;;;;;5.10;nan;101634.00;4671989;29;20003;-90
2022/03/20 04:01:12;;;;;;;;;;;;;;;5.07;nan;101631.47;4671283;29;20422;-90
2022/03/20 04:03:51;;;;;;;;;;;;;;;5.06;nan;101630.56;4678893;29;19916;-89
2022/03/20 04:06:30;;;;;;;;;;;;;;;5.03;nan;101629.84;4675086;29;20339;-90
2022/03/20 04:09:09;;;;;;;;;;;;;;;5.00;nan;101624.59;4674746;29;20386;-90
2022/03/20 04:11:48;;;;;;;;;;;;;;;4.98;nan;101626.53;4680348;29;19975;-89
2022/03/20 04:14:28;;;;;;;;;;;;;;;4.96;nan;101617.59;4673926;29;19995;-90
2022/03/20 04:17:07;;;;;;;;;;;;;;;4.93;nan;101612.34;4670024;29;19999;-88
2022/03/20 04:19:46;;;;;;;;;;;;;;;4.88;nan;101604.44;4674092;29;19921;-89
2022/03/20 04:22:26;;;;;;;;;;;;;;;4.87;nan;101596.41;4674759;29;19917;-90
2022/03/20 04:25:05;;;;;;;;;;;;;;;4.85;nan;101593.78;4669322;29;19920;-89
2022/03/20 04:27:45;;;;;;;;;;;;;;;4.82;nan;101594.81;4674858;29;19913;-88
2022/03/20 04:30:25;;;;;;;;;;;;;;;4.78;nan;101587.78;4671743;29;20003;-90
2022/03/20 04:33:04;;;;;;;;;;;;;;;4.77;nan;101587.88;4665342;29;20003;-90
2022/03/20 04:35:44;;;;;;;;;;;;;;;4.73;nan;101589.88;4679257;29;20267;-90
2022/03/20 04:38:23;;;;;;;;;;;;;;;4.73;nan;101589.88;4673972;29;19999;-90
2022/03/20 04:41:02;;;;;;;;;;;;;;;4.71;nan;101583.66;4671583;29;19924;-90
2022/03/20 04:43:41;;;;;;;;;;;;;;;4.70;nan;101584.63;4674539;29;19916;-89
2022/03/20 04:46:21;;;;;;;;;;;;;;;4.71;nan;101591.78;4674242;29;20408;-90
2022/03/20 05:00:51;;;;;;;;;;;;;;;4.63;nan;101585.88;4682571;29;19963;-90
2022/03/20 05:03:32;;;;;;;;;;;;;;;4.63;nan;101576.88;4676713;29;19912;-90
2022/03/20 05:06:10;;;;;;;;;;;;;;;4.63;nan;101582.28;4679897;29;19912;-89
2022/03/20 05:08:49;;;;;;;;;;;;;;;4.61;nan;101571.53;4657686;29;19913;-88
2022/03/20 05:14:26;;;;;;;;;;;;;;;4.62;nan;101575.13;4675236;29;19920;-89
2022/03/20 05:17:06;;;;;;;;;;;;;;;4.63;nan;101572.34;4666265;29;20265;-91
2022/03/20 05:19:45;;;;;;;;;;;;;;;4.64;nan;101568.69;4656238;29;19959;-90
2022/03/20 05:22:24;;;;;;;;;;;;;;;4.66;nan;101574.91;4664118;29;19924;-90
2022/03/20 05:25:05;;;;;;;;;;;;;;;4.68;nan;101575.69;4671451;29;19920;-89
2022/03/20 05:27:44;;;;;;;;;;;;;;;4.70;nan;101572.94;4677907;29;19959;-89
2022/03/20 05:30:23;;;;;;;;;;;;;;;4.72;nan;101579.13;4679268;29;19924;-90
2022/03/20 05:33:02;;;;;;;;;;;;;;;4.72;nan;101571.91;4665543;29;20335;-89
2022/03/20 05:35:43;;;;;;;;;;;;;;;4.73;nan;101573.66;4682584;29;19920;-89
2022/03/20 05:38:21;;;;;;;;;;;;;;;4.74;nan;101574.53;4659548;29;20264;-89
2022/03/20 05:43:58;;;;;;;;;;;;;;;4.76;nan;101568.06;4660096;29;19913;-88
2022/03/20 05:46:38;;;;;;;;;;;;;;;4.78;nan;101563.44;4669055;29;20366;-89
2022/03/20 05:49:17;;;;;;;;;;;;;;;4.81;nan;101566.00;4682686;29;19968;-89
2022/03/20 05:51:57;;;;;;;;;;;;;;;4.81;nan;101551.59;4670655;29;19920;-89
2022/03/20 05:54:36;;;;;;;;;;;;;;;4.82;nan;101539.84;4667973;29;19920;-90
2022/03/20 06:00:18;;;;;;;;;;;;;;;4.86;nan;101548.69;4680036;29;19960;-89
2022/03/20 06:03:00;;;;;;;;;;;;;;;4.87;nan;101540.47;4667542;29;20015;-89
2022/03/20 06:05:39;;;;;;;;;;;;;;;4.90;nan;101531.34;4666407;29;20015;-90
2022/03/20 06:08:21;;;;;;;;;;;;;;;4.93;nan;101536.59;4666212;29;19917;-89
2022/03/20 06:11:00;;;;;;;;;;;;;;;4.97;nan;101543.59;4682084;29;19959;-89
2022/03/20 06:13:38;;;;;;;;;;;;;;;4.99;nan;101538.97;4680465;29;19913;-89
2022/03/20 06:16:18;;;;;;;;;;;;;;;4.99;nan;101528.13;4671271;29;19963;-89
2022/03/20 06:18:57;;;;;;;;;;;;;;;4.97;nan;101516.56;4682169;29;19920;-90
2022/03/20 06:21:36;;;;;;;;;;;;;;;4.96;nan;101514.81;4672829;29;19952;-90
2022/03/20 06:24:16;;;;;;;;;;;;;;;4.96;nan;101502.16;4675641;29;20107;-89
2022/03/20 06:26:54;;;;;;;;;;;;;;;4.97;nan;101506.59;4679088;29;19920;-90
2022/03/20 06:29:33;;;;;;;;;;;;;;;4.98;nan;101499.38;4671289;29;19920;-89
2022/03/20 06:32:13;;;;;;;;;;;;;;;5.01;nan;101508.16;4671222;29;19913;-89
2022/03/20 06:34:52;;;;;;;;;;;;;;;5.03;nan;101502.69;4669375;29;19912;-90
2022/03/20 06:37:35;;;;;;;;;;;;;;;5.04;nan;101491.78;4666582;29;19916;-90
2022/03/20 06:40:14;;;;;;;;;;;;;;;5.05;nan;101482.72;4671892;29;19920;-89
2022/03/20 06:42:54;;;;;;;;;;;;;;;5.07;nan;101469.09;4670848;29;20260;-89
2022/03/20 06:45:34;;;;;;;;;;;;;;;5.09;nan;101462.66;4667197;29;19916;-89
2022/03/20 06:48:13;;;;;;;;;;;;;;;5.09;nan;101459.06;4671452;29;19916;-89
2022/03/20 06:50:52;;;;;;;;;;;;;;;5.11;nan;101468.88;4661989;29;19916;-89
2022/03/20 06:53:33;;;;;;;;;;;;;;;5.13;nan;101469.66;4672530;29;19916;-90
2022/03/20 06:56:13;;;;;;;;;;;;;;;5.16;nan;101479.44;4672167;29;20002;-90
2022/03/20 06:58:52;;;;;;;;;;;;;;;5.18;nan;101480.25;4678455;29;19916;-90
2022/03/20 07:01:31;;;;;;;;;;;;;;;5.21;nan;101471.06;4678666;29;19912;-89
2022/03/20 07:04:10;;;;;;;;;;;;;;;5.22;nan;101470.09;4675621;29;19951;-90
2022/03/20 07:06:49;;;;;;;;;;;;;;;5.24;nan;101476.31;4674988;29;19912;-89
2022/03/20 07:09:28;;;;;;;;;;;;;;;5.25;nan;101473.53;4669123;29;20383;-90
2022/03/20 07:12:08;;;;;;;;;;;;;;;5.27;nan;101474.31;4666965;29;20268;-88
2022/03/20 07:14:47;;;;;;;;;;;;;;;5.31;nan;101467.78;4666701;29;19920;-90
2022/03/20 07:17:25;;;;;;;;;;;;;;;5.34;nan;101466.75;4671882;29;19913;-89
2022/03/20 07:20:11;;;;;;;;;;;;;;;5.37;nan;101464.75;4670546;29;19916;-90
2022/03/20 07:22:50;;;;;;;;;;;;;;;5.40;nan;101458.31;4672897;29;20351;-91
2022/03/20 07:31:25;;;;;;;;;;;;;;;5.55;nan;101449.34;4667979;29;19952;-92
2022/03/20 07:34:04;;;;;;;;;;;;;;;5.60;nan;101451.78;4675764;29;20363;-91
2022/03/20 07:36:43;;;;;;;;;;;;;;;5.65;nan;101441.56;4679692;29;19917;-91
2022/03/20 07:39:22;;;;;;;;;;;;;;;5.69;nan;101435.00;4675732;29;20367;-90
2022/03/20 07:42:02;;;;;;;;;;;;;;;5.73;nan;101423.06;4676365;29;19943;-91
2022/03/20 07:44:41;;;;;;;;;;;;;;;5.77;nan;101422.81;4674622;29;19955;-91
2022/03/20 07:47:21;;;;;;;;;;;;;;;5.82;nan;101422.53;4664931;29;19921;-91
2022/03/20 07:50:00;;;;;;;;;;;;;;;5.86;nan;101419.53;4675401;29;19916;-91
2022/03/20 07:52:39;;;;;;;;;;;;;;;5.92;nan;101420.19;4677526;29;19912;-90
2022/03/20 07:55:18;;;;;;;;;;;;;;;5.98;nan;101419.84;4677948;29;19924;-91
2022/03/20 08:01:28;;;;;;;;;;;;;;;6.10;nan;101414.59;4684147;29;19916;-90
2022/03/20 08:04:13;;;;;;;;;;;;;;;6.17;nan;101424.13;4677016;29;19916;-90
2022/03/20 08:07:23;;;;;;;;;;;;;;;6.22;nan;101431.13;4680059;29;20360;-91
2022/03/20 08:10:10;;;;;;;;;;;;;;;6.29;nan;101432.47;4687793;29;19917;-91
2022/03/20 08:12:49;;;;;;;;;;;;;;;6.34;nan;101431.25;4675210;29;20379;-90
2022/03/20 08:15:31;;;;;;;;;;;;;;;6.43;nan;101432.56;4672128;29;20363;-90
2022/03/20 08:18:15;;;;;;;;;;;;;;;6.50;nan;101418.53;4672446;29;20007;-91
2022/03/20 08:20:54;;;;;;;;;;;;;;;6.59;nan;101411.69;4669482;29;20430;-91
2022/03/20 08:23:33;;;;;;;;;;;;;;;6.68;nan;101394.00;4669795;29;20406;-90
2022/03/20 08:26:12;;;;;;;;;;;;;;;6.76;nan;101397.97;4668737;29;19912;-91
2022/03/20 08:28:51;;;;;;;;;;;;;;;6.87;nan;101419.91;4673549;29;19968;-90
2022/03/20 08:31:33;;;;;;;;;;;;;;;6.96;nan;101410.31;4670504;29;19917;-92
2022/03/20 08:34:15;;;;;;;;;;;;;;;7.08;nan;101416.84;4671666;29;19920;-92
2022/03/20 08:36:55;;;;;;;;;;;;;;;7.18;nan;101416.16;4677273;29;20023;-91
2022/03/20 08:39:35;;;;;;;;;;;;;;;7.27;nan;101409.28;4675033;29;19917;-90
2022/03/20 08:42:13;;;;;;;;;;;;;;;7.37;nan;101404.13;4672631;29;20615;-91
2022/03/20 08:44:52;;;;;;;;;;;;;;;7.46;nan;101408.97;4674033;29;19920;-91
2022/03/20 08:47:35;;;;;;;;;;;;;;;7.53;nan;101408.50;4672533;29;19951;-91
2022/03/20 08:50:23;;;;;;;;;;;;;;;7.61;nan;101407.97;4674603;29;20386;-91
2022/03/20 08:53:29;;;;;;;;;;;;;;;7.69;nan;101412.94;4676792;29;19916;-91
2022/03/20 08:56:08;;;;;;;;;;;;;;;7.74;nan;101408.94;4666270;29;19924;-91
2022/03/20 08:59:10;;;;;;;;;;;;;;;7.80;nan;101403.09;4675682;29;19920;-90
2022/03/20 09:02:02;;;;;;;;;;;;;;;7.83;nan;101394.75;4676312;29;19999;-91
2022/03/20 09:04:41;;;;;;;;;;;;;;;7.87;nan;101388.16;4671415;29;20359;-88
2022/03/20 09:07:20;;;;;;;;;;;;;;;7.92;nan;101390.56;4663914;29;20352;-90
2022/03/20 09:09:58;;;;;;;;;;;;;;;7.96;nan;101393.97;4678570;29;19920;-90
2022/03/20 09:12:38;;;;;;;;;;;;;;;8.01;nan;101410.84;4672937;29;20358;-91
2022/03/20 09:15:17;;;;;;;;;;;;;;;8.04;nan;101392.44;4673015;29;20015;-92
2022/03/20 09:20:54;;;;;;;;;;;;;;;8.18;nan;101406.03;4676146;29;19924;-91
2022/03/20 09:23:33;;;;;;;;;;;;;;;8.25;nan;101398.31;4683778;29;19919;-92
2022/03/20 09:26:13;;;;;;;;;;;;;;;8.33;nan;101398.69;4675896;29;20410;-91
2022/03/20 09:28:52;;;;;;;;;;;;;;;8.39;nan;101397.41;4683297;29;19917;-91
2022/03/20 09:31:31;;;;;;;;;;;;;;;8.46;nan;101396.00;4668729;29;19916;-91
2022/03/20 09:34:10;;;;;;;;;;;;;;;8.53;nan;101394.63;4673768;29;19920;-91
2022/03/20 09:36:49;;;;;;;;;;;;;;;8.62;nan;101385.84;4674498;29;20367;-90
2022/03/20 09:39:28;;;;;;;;;;;;;;;8.71;nan;101378.88;4669009;29;19912;-91
2022/03/20 09:42:07;;;;;;;;;;;;;;;8.78;nan;101381.06;4674783;29;20371;-91
2022/03/20 09:44:49;;;;;;;;;;;;;;;8.87;nan;101380.44;4672564;29;20318;-91
2022/03/20 09:47:27;;;;;;;;;;;;;;;8.99;nan;101370.50;4661289;29;19916;-92
2022/03/20 09:50:07;;;;;;;;;;;;;;;9.10;nan;101365.16;4667638;29;20007;-90
2022/03/20 09:52:46;;;;;;;;;;;;;;;9.20;nan;101371.72;4670652;29;19921;-90
2022/03/20 09:55:25;;;;;;;;;;;;;;;9.31;nan;101362.75;4667543;29;19921;-91
2022/03/20 09:58:04;;;;;;;;;;;;;;;9.43;nan;101367.31;4673873;29;20403;-90
2022/03/20 10:00:43;;;;;;;;;;;;;;;9.54;nan;101361.94;4671671;29;19916;-90
2022/03/20 10:03:23;;;;;;;;;;;;;;;9.66;nan;101357.47;4664177;29;19916;-92
2022/03/20 10:06:17;;;;;;;;;;;;;;;9.80;nan;101356.44;4673257;29;19917;-91
2022/03/20 10:08:56;;;;;;;;;;;;;;;-145.06;0.00;60892.56;4663576;29;20255;-91
2022/03/20 10:11:38;;;;;;;;;;;;;;;-145.06;0.00;60892.56;4679780;29;19916;-91
2022/03/20 10:14:18;;;;;;;;;;;;;;;-145.06;0.00;60892.56;4675071;29;19923;-90
2022/03/20 10:17:06;;;;;;;;;;;;;;;-145.06;0.00;60892.56;4673691;29;19924;-91
2022/03/20 10:19:45;;;;;;;;;;;;;;;-145.06;0.00;60892.56;4672155;29;19916;-90
2022/03/20 10:22:32;;;;;;;;;;;;;;;10.40;0.00;60892.56;4672663;29;19916;-91
2022/03/20 10:25:12;;;;;;;;;;;;;;;10.49;0.00;60892.56;4671946;29;19917;-90
2022/03/20 10:27:57;;;;;;;;;;;;;;;10.56;0.00;60892.56;4658719;29;19916;-91
2022/03/20 10:30:35;;;;;;;;;;;;;;;10.63;0.00;60892.56;4668469;29;20351;-90
2022/03/20 10:33:14;;;;;;;;;;;;;;;10.68;0.00;60892.56;4669076;29;19916;-90
2022/03/20 10:36:12;;;;;;;;;;;;;;;-145.06;0.00;60892.56;4668320;29;20656;-90
2022/03/20 10:38:51;;;;;;;;;;;;;;;-145.06;0.00;60892.56;4666073;29;19920;-91
2022/03/20 10:41:34;;;;;;;;;;;;;;;-145.06;0.00;60892.56;4679652;29;19900;-91
2022/03/20 10:44:20;;;;;;;;;;;;;;;-145.06;0.00;60892.56;4693705;29;19929;-91
2022/03/20 10:47:04;;;;;;;;;;;;;;;-145.06;0.00;60892.56;4684243;29;20007;-90
2022/03/20 10:50:10;;;;;;;;;;;;;;;-145.06;0.00;60892.56;4671166;29;20010;-91
2022/03/20 10:53:05;;;;;;;;;;;;;;;-145.06;0.00;60892.56;4676159;29;19916;-90
2022/03/20 10:55:46;;;;;;;;;;;;;;;-145.06;0.00;60892.56;4667272;29;19924;-90
2022/03/20 10:58:26;;;;;;;;;;;;;;;-145.06;0.00;60892.56;4669220;29;20268;-91
2022/03/20 11:01:07;;;;;;;;;;;;;;;-145.06;0.00;60892.56;4667370;29;19924;-90
2022/03/20 11:03:46;;;;;;;;;;;;;;;-145.06;0.00;60892.56;4669837;29;19916;-90
2022/03/20 11:06:25;;;;;;;;;;;;;;;-145.06;0.00;60892.56;4673699;29;19917;-92
2022/03/20 11:09:04;;;;;;;;;;;;;;;-145.06;0.00;60892.56;4676529;29;19921;-92
2022/03/20 11:11:52;;;;;;;;;;;;;;;-145.06;0.00;60892.56;4671424;29;19912;-91
2022/03/20 11:14:33;;;;;;;;;;;;;;;-145.06;0.00;60892.56;4668891;29;19916;-91
2022/03/20 11:17:17;;;;;;;;;;;;;;;-145.06;0.00;60892.56;4666663;29;20000;-90
2022/03/20 11:19:57;;;;;;;;;;;;;;;187.52;0.00;60892.56;4662130;29;19925;-91
2022/03/20 11:22:37;;;;;;;;;;;;;;;-145.06;0.00;60892.56;4665705;29;20593;-92
2022/03/20 11:25:20;;;;;;;;;;;;;;;-145.06;0.00;60892.56;4664754;29;19920;-91
2022/03/20 11:28:01;;;;;;;;;;;;;;;-145.06;0.00;60892.56;4665674;29;19920;-91
2022/03/20 11:30:41;;;;;;;;;;;;;;;-145.06;0.00;60892.56;4665372;29;19916;-92
2022/03/20 11:33:21;;;;;;;;;;;;;;;187.52;0.00;60892.56;4654036;29;19971;-90
2022/03/20 11:36:01;;;;;;;;;;;;;;;-145.06;0.00;60892.56;4659949;29;19925;-91
2022/03/20 11:38:41;;;;;;;;;;;;;;;-145.06;0.00;60892.56;4653842;29;19925;-92
2022/03/20 11:41:21;;;;;;;;;;;;;;;-145.06;0.00;60892.56;4657282;29;20396;-91
2022/03/20 11:44:10;;;;;;;;;;;;;;;-145.06;0.00;60892.56;4657666;29;19924;-91
2022/03/20 11:47:07;;;;;;;;;;;;;;;-145.06;0.00;60892.56;4655962;29;19917;-91
2022/03/20 11:50:05;;;;;;;;;;;;;;;-145.06;0.00;60892.56;4660362;29;20039;-89
2022/03/20 11:52:48;;;;;;;;;;;;;;;-145.06;0.00;60892.56;4657061;29;20284;-88
2022/03/20 11:55:30;;;;;;;;;;;;;;;-145.06;0.00;60892.56;4661535;29;19928;-88
2022/03/20 11:58:29;;;;;;;;;;;;;;;-145.06;0.00;60892.56;4668046;29;19924;-89
2022/03/20 12:01:11;;;;;;;;;;;;;;;-145.06;0.00;60892.56;4657706;29;19920;-90
2022/03/20 12:03:52;;;;;;;;;;;;;;;-145.06;0.00;60892.56;4656141;29;19920;-88
2022/03/20 12:06:34;;;;;;;;;;;;;;;10.65;0.00;60892.56;4657194;29;19924;-89
2022/03/20 12:09:20;;;;;;;;;;;;;;;10.56;0.00;60892.56;4656115;29;20007;-89
2022/03/20 12:12:22;;;;;;;;;;;;;;;10.48;0.00;60892.56;4674390;29;19921;-88
2022/03/20 12:15:06;;;;;;;;;;;;;;;10.42;0.00;60892.56;4661902;29;19920;-89
2022/03/20 12:18:05;;;;;;;;;;;;;;;-145.06;0.00;60892.56;4653071;29;21138;-88
2022/03/20 12:20:59;;;;;;;;;;;;;;;-145.06;0.00;60892.56;4653183;29;19924;-89
2022/03/20 12:23:43;;;;;;;;;;;;;;;-145.06;0.00;60892.56;4662646;29;20413;-88
2022/03/20 12:26:30;;;;;;;;;;;;;;;-145.06;0.00;60892.56;4659264;29;19921;-88
2022/03/20 12:29:28;;;;;;;;;;;;;;;-145.06;0.00;60892.56;4679700;29;20446;-89
2022/03/20 12:32:12;;;;;;;;;;;;;;;-145.06;0.00;60892.56;4664492;29;20336;-89
2022/03/20 12:35:02;;;;;;;;;;;;;;;-145.06;0.00;60892.56;4659571;29;20395;-89
2022/03/20 12:37:43;;;;;;;;;;;;;;;-145.06;0.00;60892.56;4665152;29;20386;-89
2022/03/20 12:40:25;;;;;;;;;;;;;;;-145.06;0.00;60892.56;4661262;29;19921;-90
2022/03/20 12:43:09;;;;;;;;;;;;;;;-145.06;0.00;60892.56;4661219;29;19920;-89
2022/03/20 12:45:55;;;;;;;;;;;;;;;-145.06;0.00;60892.56;4659691;29;19920;-88
2022/03/20 12:48:34;;;;;;;;;;;;;;;-145.06;0.00;60892.56;4668905;29;20252;-89
2022/03/20 12:51:15;;;;;;;;;;;;;;;-145.06;0.00;60892.56;4666835;29;19920;-87
2022/03/20 12:53:55;;;;;;;;;;;;;;;-145.06;0.00;60892.56;4662798;29;19925;-89
2022/03/20 12:56:34;;;;;;;;;;;;;;;-145.06;0.00;60892.56;4661171;29;19924;-90
2022/03/20 12:59:24;;;;;;;;;;;;;;;-145.06;0.00;60892.56;4659778;29;19920;-88
2022/03/20 13:02:04;;;;;;;;;;;;;;;-145.06;0.00;60892.56;4663302;29;19956;-89
2022/03/20 13:04:47;;;;;;;;;;;;;;;-145.06;0.00;60892.56;4658024;29;20003;-90
2022/03/20 13:07:26;;;;;;;;;;;;;;;-145.06;0.00;60892.56;4671638;29;19921;-88
2022/03/20 13:10:05;;;;;;;;;;;;;;;-145.06;0.00;60892.56;4660564;29;19921;-89
2022/03/20 13:12:51;;;;;;;;;;;;;;;-145.06;0.00;60892.56;4663412;29;19920;-89
2022/03/20 13:15:31;;;;;;;;;;;;;;;-145.06;0.00;60892.56;4660263;29;19929;-88
2022/03/20 13:18:10;;;;;;;;;;;;;;;-145.06;0.00;60892.56;4657519;29;20283;-89
2022/03/20 13:20:49;;;;;;;;;;;;;;;10.44;0.00;60892.56;4657049;29;19920;-88
2022/03/20 13:23:28;;;;;;;;;;;;;;;10.44;0.00;60892.56;4665470;29;19920;-88
2022/03/20 13:26:08;;;;;;;;;;;;;;;10.44;0.00;60892.56;4662567;29;19920;-89
2022/03/20 13:28:47;;;;;;;;;;;;;;;10.48;0.00;60892.56;4665263;29;19956;-88
2022/03/20 13:31:25;;;;;;;;;;;;;;;10.50;0.00;60892.56;4661962;29;20085;-88
2022/03/20 13:34:05;;;;;;;;;;;;;;;10.51;0.00;60892.56;4659032;29;19920;-89
2022/03/20 13:36:46;;;;;;;;;;;;;;;10.56;0.00;60892.56;4667838;29;20348;-88
2022/03/20 13:39:25;;;;;;;;;;;;;;;10.56;0.00;60892.56;4670171;29;20384;-88
2022/03/20 13:42:15;;;;;;;;;;;;;;;10.58;0.00;60892.56;4662021;29;19920;-89
2022/03/20 13:44:54;;;;;;;;;;;;;;;10.65;0.00;60892.56;4663959;29;20300;-88
2022/03/20 13:47:35;;;;;;;;;;;;;;;-145.06;0.00;60892.56;4678577;29;19920;-88
2022/03/20 13:50:14;;;;;;;;;;;;;;;-145.06;0.00;60892.56;4666514;29;19996;-88
2022/03/20 13:52:53;;;;;;;;;;;;;;;-145.06;0.00;60892.56;4659595;29;20687;-88
2022/03/20 13:55:38;;;;;;;;;;;;;;;-145.06;0.00;60892.56;4656563;29;19924;-89
2022/03/20 13:58:18;;;;;;;;;;;;;;;-145.06;0.00;60892.56;4661827;29;20578;-89
2022/03/20 14:01:01;;;;;;;;;;;;;;;-145.06;0.00;60892.56;4665212;29;19924;-88
2022/03/20 14:03:41;;;;;;;;;;;;;;;-145.06;0.00;60892.56;4664229;29;19920;-89
2022/03/20 14:06:20;;;;;;;;;;;;;;;-145.06;0.00;60892.56;4663646;29;20006;-89
2022/03/20 14:08:59;;;;;;;;;;;;;;;-145.06;0.00;60892.56;4667452;29;19920;-89
2022/03/20 14:11:38;;;;;;;;;;;;;;;-145.06;0.00;60892.56;4686167;29;19920;-89
2022/03/20 14:14:18;;;;;;;;;;;;;;;11.67;0.00;60892.56;4678508;29;20072;-89
2022/03/20 14:16:58;;;;;;;;;;;;;;;11.73;0.00;60892.56;4674091;29;19928;-89
2022/03/20 14:19:46;;;;;;;;;;;;;;;11.77;0.00;60892.56;4660707;29;19963;-90
2022/03/20 14:22:40;;;;;;;;;;;;;;;11.82;0.00;60892.56;4662678;29;20413;-90
2022/03/20 14:25:51;;;;;;;;;;;;;;;11.90;0.00;60892.56;4660037;29;19950;-89
2022/03/20 14:28:35;;;;;;;;;;;;;;;-145.06;0.00;60892.56;4655832;29;19920;-89
2022/03/20 14:40:23;;;;;;;;;;;;;;;-145.06;0.00;60892.56;4660024;29;19920;-90
2022/03/20 14:43:10;;;;;;;;;;;;;;;-145.06;0.00;60892.56;4659831;29;20419;-91
2022/03/20 14:45:50;;;;;;;;;;;;;;;-145.06;0.00;60892.56;4661846;29;19912;-90
2022/03/20 14:48:29;;;;;;;;;;;;;;;-145.06;0.00;60892.56;4661752;29;19917;-91
2022/03/20 14:51:08;;;;;;;;;;;;;;;-145.06;0.00;60892.56;4666491;29;19920;-89
2022/03/20 14:53:48;;;;;;;;;;;;;;;-145.06;0.00;60892.56;4662323;29;19924;-89
2022/03/20 14:56:27;;;;;;;;;;;;;;;-145.06;0.00;60892.56;4660544;29;19928;-89
2022/03/20 14:59:08;;;;;;;;;;;;;;;-145.06;0.00;60892.56;4660635;29;20391;-89